createdAt,value
2017-09-14T00:00:39.909Z,11.81
2017-09-14T00:01:39.841Z,11.81
2017-09-14T00:02:39.816Z,11.93
2017-09-14T00:03:39.793Z,11.96
2017-09-14T00:04:39.769Z,11.87
2017-09-14T00:05:39.749Z,11.9
2017-09-14T00:06:39.733Z,11.97
2017-09-14T00:07:39.703Z,12.05
2017-09-14T00:08:39.684Z,11.96
2017-09-14T00:09:39.661Z,12.01
2017-09-14T00:10:39.632Z,12.05
2017-09-14T00:11:39.610Z,11.98
2017-09-14T00:12:39.601Z,11.96
2017-09-14T00:13:39.263Z,11.94
2017-09-14T00:14:39.551Z,11.84
2017-09-14T00:15:39.518Z,11.85
2017-09-14T00:16:39.492Z,11.88
2017-09-14T00:17:39.167Z,11.84
2017-09-14T00:18:39.501Z,11.87
2017-09-14T00:19:39.129Z,11.78
2017-09-14T00:20:39.411Z,11.82
2017-09-14T00:21:39.079Z,11.82
2017-09-14T00:22:39.361Z,11.82
2017-09-14T00:23:39.032Z,11.74
2017-09-14T00:24:39.316Z,11.85
2017-09-14T00:25:39.301Z,11.74
2017-09-14T00:26:39.264Z,11.74
2017-09-14T00:27:39.253Z,11.81
2017-09-14T00:28:39.222Z,11.85
2017-09-14T00:29:39.199Z,11.82
2017-09-14T00:30:39.376Z,11.79
2017-09-14T00:31:39.156Z,11.88
2017-09-14T00:32:39.137Z,11.79
2017-09-14T00:33:39.112Z,11.81
2017-09-14T00:34:39.088Z,11.79
2017-09-14T00:35:39.060Z,11.79
2017-09-14T00:36:39.045Z,11.79
2017-09-14T00:37:39.023Z,11.85
2017-09-14T00:38:38.687Z,11.81
2017-09-14T00:39:38.983Z,11.81
2017-09-14T00:40:38.949Z,11.85
2017-09-14T00:41:38.934Z,11.87
2017-09-14T00:42:38.900Z,11.87
2017-09-14T00:43:38.893Z,11.81
2017-09-14T00:44:38.856Z,11.84
2017-09-14T00:45:38.835Z,11.88
2017-09-14T00:46:38.821Z,11.93
2017-09-14T00:47:38.790Z,11.9
2017-09-14T00:48:38.769Z,11.96
2017-09-14T00:49:38.743Z,11.85
2017-09-14T00:50:38.727Z,11.87
2017-09-14T00:51:38.709Z,11.81
2017-09-14T00:52:38.681Z,11.81
2017-09-14T00:53:38.657Z,11.82
2017-09-14T00:54:38.632Z,11.87
2017-09-14T00:55:38.611Z,11.82
2017-09-14T00:56:38.589Z,11.78
2017-09-14T00:57:38.568Z,11.81
2017-09-14T00:58:38.545Z,11.72
2017-09-14T00:59:38.521Z,11.7
2017-09-14T01:00:38.493Z,11.84
2017-09-14T01:01:38.472Z,11.7
2017-09-14T01:02:38.452Z,11.81
2017-09-14T01:03:38.427Z,11.7
2017-09-14T01:04:38.406Z,11.79
2017-09-14T01:05:38.383Z,11.85
2017-09-14T01:06:38.358Z,11.75
2017-09-14T01:07:38.336Z,11.82
2017-09-14T01:08:38.315Z,11.85
2017-09-14T01:09:38.295Z,11.77
2017-09-14T01:10:38.269Z,11.84
2017-09-14T01:11:37.943Z,11.84
2017-09-14T01:12:38.224Z,11.88
2017-09-14T01:13:38.203Z,11.88
2017-09-14T01:14:38.180Z,11.88
2017-09-14T01:15:38.152Z,11.9
2017-09-14T01:16:38.133Z,11.96
2017-09-14T01:17:38.112Z,11.88
2017-09-14T01:18:38.100Z,11.79
2017-09-14T01:19:38.070Z,11.93
2017-09-14T01:20:38.043Z,11.85
2017-09-14T01:21:38.050Z,11.94
2017-09-14T01:22:37.995Z,11.81
2017-09-14T01:23:37.973Z,11.87
2017-09-14T01:24:37.951Z,11.84
2017-09-14T01:25:37.926Z,11.84
2017-09-14T01:26:37.906Z,11.96
2017-09-14T01:27:37.884Z,11.87
2017-09-14T01:28:37.873Z,11.85
2017-09-14T01:29:37.841Z,11.79
2017-09-14T01:30:37.850Z,11.84
2017-09-14T01:31:37.793Z,11.85
2017-09-14T01:32:37.774Z,11.87
2017-09-14T01:33:37.747Z,11.82
2017-09-14T01:34:37.728Z,11.78
2017-09-14T01:35:37.728Z,11.79
2017-09-14T01:36:37.685Z,11.79
2017-09-14T01:37:37.715Z,11.77
2017-09-14T01:38:37.634Z,11.74
2017-09-14T01:39:37.613Z,11.72
2017-09-14T01:40:37.590Z,11.81
2017-09-14T01:41:37.571Z,11.82
2017-09-14T01:42:37.547Z,11.7
2017-09-14T01:43:37.525Z,11.84
2017-09-14T01:44:37.499Z,11.84
2017-09-14T01:45:37.476Z,11.82
2017-09-14T01:46:37.452Z,11.74
2017-09-14T01:47:37.429Z,11.82
2017-09-14T01:48:37.418Z,11.79
2017-09-14T01:49:37.385Z,11.88
2017-09-14T01:50:37.360Z,11.79
2017-09-14T01:51:37.344Z,11.81
2017-09-14T01:52:37.323Z,11.84
2017-09-14T01:53:36.984Z,11.82
2017-09-14T01:54:37.267Z,11.79
2017-09-14T01:55:37.246Z,11.85
2017-09-14T01:56:37.231Z,11.88
2017-09-14T01:57:37.203Z,11.79
2017-09-14T01:58:37.173Z,11.79
2017-09-14T01:59:37.154Z,11.72
2017-09-14T02:00:37.142Z,11.72
2017-09-14T02:01:37.131Z,11.77
2017-09-14T02:02:37.085Z,11.75
2017-09-14T02:03:37.062Z,11.66
2017-09-14T02:04:37.047Z,11.72
2017-09-14T02:05:37.024Z,11.6
2017-09-14T02:06:37.000Z,11.67
2017-09-14T02:07:36.978Z,11.6
2017-09-14T02:08:36.956Z,11.59
2017-09-14T02:09:36.943Z,11.6
2017-09-14T02:10:36.903Z,11.59
2017-09-14T02:11:36.583Z,11.59
2017-09-14T02:12:36.861Z,11.59
2017-09-14T02:13:36.836Z,11.6
2017-09-14T02:14:36.815Z,11.53
2017-09-14T02:15:36.793Z,11.49
2017-09-14T02:16:36.773Z,11.45
2017-09-14T02:17:36.745Z,11.54
2017-09-14T02:18:36.726Z,11.51
2017-09-14T02:19:36.710Z,11.46
2017-09-14T02:20:36.684Z,11.48
2017-09-14T02:21:36.655Z,11.36
2017-09-14T02:22:36.644Z,11.38
2017-09-14T02:23:36.612Z,11.46
2017-09-14T02:24:36.636Z,11.33
2017-09-14T02:25:36.561Z,11.44
2017-09-14T02:26:36.589Z,11.41
2017-09-14T02:27:36.517Z,11.44
2017-09-14T02:28:36.524Z,11.41
2017-09-14T02:29:36.473Z,11.36
2017-09-14T02:30:36.143Z,11.28
2017-09-14T02:31:36.116Z,11.41
2017-09-14T02:32:36.399Z,11.38
2017-09-14T02:33:36.387Z,11.33
2017-09-14T02:34:36.361Z,11.35
2017-09-14T02:35:36.339Z,11.38
2017-09-14T02:36:36.316Z,11.24
2017-09-14T02:37:36.298Z,11.39
2017-09-14T02:38:36.276Z,11.27
2017-09-14T02:39:36.250Z,11.31
2017-09-14T02:40:36.217Z,11.21
2017-09-14T02:41:35.892Z,11.21
2017-09-14T02:42:36.185Z,11.24
2017-09-14T02:43:36.200Z,11.3
2017-09-14T02:44:36.134Z,11.24
2017-09-14T02:45:36.110Z,11.17
2017-09-14T02:46:36.084Z,11.2
2017-09-14T02:47:36.063Z,11.17
2017-09-14T02:48:36.040Z,11.26
2017-09-14T02:49:36.029Z,11.21
2017-09-14T02:50:36.009Z,11.2
2017-09-14T02:51:35.666Z,11.28
2017-09-14T02:52:35.947Z,11.35
2017-09-14T02:53:35.926Z,11.33
2017-09-14T02:54:35.593Z,11.35
2017-09-14T02:55:35.893Z,11.28
2017-09-14T02:56:35.856Z,11.38
2017-09-14T02:57:35.831Z,11.41
2017-09-14T02:58:35.503Z,11.39
2017-09-14T02:59:35.791Z,11.44
2017-09-14T03:00:35.763Z,11.45
2017-09-14T03:01:35.738Z,11.33
2017-09-14T03:02:35.730Z,11.41
2017-09-14T03:03:35.719Z,11.49
2017-09-14T03:04:35.674Z,11.42
2017-09-14T03:05:35.651Z,11.31
2017-09-14T03:06:35.630Z,11.41
2017-09-14T03:07:35.600Z,11.36
2017-09-14T03:08:35.585Z,11.41
2017-09-14T03:09:35.566Z,11.44
2017-09-14T03:10:35.537Z,11.44
2017-09-14T03:11:35.515Z,11.42
2017-09-14T03:12:35.490Z,11.3
2017-09-14T03:13:35.477Z,11.27
2017-09-14T03:14:35.450Z,11.44
2017-09-14T03:15:35.429Z,11.44
2017-09-14T03:16:35.447Z,11.36
2017-09-14T03:17:35.376Z,11.42
2017-09-14T03:18:35.354Z,11.39
2017-09-14T03:19:35.334Z,11.45
2017-09-14T03:20:34.996Z,11.39
2017-09-14T03:21:34.979Z,11.33
2017-09-14T03:22:35.259Z,11.39
2017-09-14T03:23:35.242Z,11.3
2017-09-14T03:24:35.215Z,11.41
2017-09-14T03:25:35.190Z,11.35
2017-09-14T03:26:35.169Z,11.24
2017-09-14T03:27:35.154Z,11.26
2017-09-14T03:28:35.137Z,11.23
2017-09-14T03:29:34.797Z,11.19
2017-09-14T03:30:35.082Z,11.19
2017-09-14T03:31:35.061Z,11.33
2017-09-14T03:32:35.032Z,11.16
2017-09-14T03:33:35.006Z,11.33
2017-09-14T03:34:35.003Z,11.27
2017-09-14T03:35:34.962Z,11.3
2017-09-14T03:36:34.943Z,11.31
2017-09-14T03:37:34.911Z,11.35
2017-09-14T03:38:34.896Z,11.39
2017-09-14T03:39:34.881Z,11.36
2017-09-14T03:40:34.858Z,11.44
2017-09-14T03:41:34.829Z,11.44
2017-09-14T03:42:34.806Z,11.45
2017-09-14T03:43:34.782Z,11.49
2017-09-14T03:44:34.762Z,11.48
2017-09-14T03:45:34.738Z,11.54
2017-09-14T03:46:34.714Z,11.42
2017-09-14T03:47:34.692Z,11.36
2017-09-14T03:48:34.702Z,11.45
2017-09-14T03:49:34.641Z,11.48
2017-09-14T03:50:34.627Z,11.53
2017-09-14T03:51:34.600Z,11.54
2017-09-14T03:52:34.575Z,11.63
2017-09-14T03:53:34.555Z,11.46
2017-09-14T03:54:34.538Z,11.57
2017-09-14T03:55:34.512Z,11.62
2017-09-14T03:56:34.532Z,11.64
2017-09-14T03:57:34.459Z,11.62
2017-09-14T03:58:34.438Z,11.63
2017-09-14T03:59:34.415Z,11.59
2017-09-14T04:00:34.453Z,11.7
2017-09-14T04:01:34.378Z,11.7
2017-09-14T04:02:34.362Z,11.79
2017-09-14T04:03:34.018Z,11.7
2017-09-14T04:04:34.359Z,11.74
2017-09-14T04:05:34.284Z,11.78
2017-09-14T04:06:34.290Z,11.67
2017-09-14T04:07:34.227Z,11.79
2017-09-14T04:08:33.952Z,11.72
2017-09-14T04:09:34.182Z,11.77
2017-09-14T04:10:33.859Z,11.7
2017-09-14T04:11:34.146Z,11.72
2017-09-14T04:12:34.119Z,11.69
2017-09-14T04:13:34.103Z,11.69
2017-09-14T04:14:34.085Z,11.56
2017-09-14T04:15:34.052Z,11.59
2017-09-14T04:16:34.036Z,11.6
2017-09-14T04:17:34.005Z,11.56
2017-09-14T04:18:33.986Z,11.54
2017-09-14T04:19:34.015Z,11.57
2017-09-14T04:20:33.938Z,11.59
2017-09-14T04:21:33.914Z,11.64
2017-09-14T04:22:33.891Z,11.62
2017-09-14T04:23:33.868Z,11.56
2017-09-14T04:24:33.882Z,11.51
2017-09-14T04:25:33.881Z,11.49
2017-09-14T04:26:33.488Z,11.36
2017-09-14T04:27:33.779Z,11.49
2017-09-14T04:28:33.751Z,11.45
2017-09-14T04:29:33.736Z,11.46
2017-09-14T04:30:33.711Z,11.53
2017-09-14T04:31:33.692Z,11.41
2017-09-14T04:32:33.667Z,11.38
2017-09-14T04:33:33.644Z,11.39
2017-09-14T04:34:33.616Z,11.41
2017-09-14T04:35:33.399Z,11.44
2017-09-14T04:36:33.576Z,11.49
2017-09-14T04:37:33.552Z,11.44
2017-09-14T04:38:33.533Z,11.41
2017-09-14T04:39:33.507Z,11.41
2017-09-14T04:40:33.483Z,11.38
2017-09-14T04:41:33.459Z,11.39
2017-09-14T04:42:33.192Z,11.35
2017-09-14T04:43:33.416Z,11.36
2017-09-14T04:44:33.084Z,11.36
2017-09-14T04:45:33.372Z,11.3
2017-09-14T04:46:33.343Z,11.23
2017-09-14T04:47:33.327Z,11.2
2017-09-14T04:48:33.307Z,11.26
2017-09-14T04:49:32.969Z,11.24
2017-09-14T04:50:33.255Z,11.13
2017-09-14T04:51:32.920Z,11.08
2017-09-14T04:52:33.207Z,11.19
2017-09-14T04:53:32.877Z,11.11
2017-09-14T04:54:33.172Z,11.24
2017-09-14T04:55:33.137Z,11.17
2017-09-14T04:56:33.168Z,11.17
2017-09-14T04:57:33.090Z,11.17
2017-09-14T04:58:33.064Z,11.16
2017-09-14T04:59:33.064Z,11.17
2017-09-14T05:00:33.032Z,11.2
2017-09-14T05:01:32.996Z,11.17
2017-09-14T05:02:32.992Z,11.19
2017-09-14T05:03:33.001Z,11.12
2017-09-14T05:04:32.928Z,11.17
2017-09-14T05:05:32.913Z,11.2
2017-09-14T05:06:32.883Z,11.21
2017-09-14T05:07:32.868Z,11.26
2017-09-14T05:08:32.837Z,11.24
2017-09-14T05:09:32.819Z,11.23
2017-09-14T05:10:32.789Z,11.16
2017-09-14T05:11:32.773Z,11.26
2017-09-14T05:12:32.744Z,11.19
2017-09-14T05:13:32.738Z,11.12
2017-09-14T05:14:32.756Z,11.27
2017-09-14T05:15:32.372Z,11.21
2017-09-14T05:16:32.653Z,11.17
2017-09-14T05:17:32.636Z,11.26
2017-09-14T05:18:32.607Z,11.38
2017-09-14T05:19:32.584Z,11.36
2017-09-14T05:20:32.566Z,11.44
2017-09-14T05:21:32.543Z,11.41
2017-09-14T05:22:32.524Z,11.38
2017-09-14T05:23:32.500Z,11.35
2017-09-14T05:24:32.493Z,11.48
2017-09-14T05:25:32.452Z,11.54
2017-09-14T05:26:32.431Z,11.44
2017-09-14T05:27:32.411Z,11.45
2017-09-14T05:28:32.388Z,11.48
2017-09-14T05:29:32.394Z,11.53
2017-09-14T05:30:32.346Z,11.49
2017-09-14T05:31:32.317Z,11.53
2017-09-14T05:32:32.294Z,11.54
2017-09-14T05:33:32.266Z,11.66
2017-09-14T05:34:32.251Z,11.64
2017-09-14T05:35:32.226Z,11.63
2017-09-14T05:36:32.205Z,11.7
2017-09-14T05:37:32.184Z,11.74
2017-09-14T05:38:31.844Z,11.81
2017-09-14T05:39:32.133Z,11.81
2017-09-14T05:40:32.106Z,11.9
2017-09-14T05:41:32.088Z,12.12
2017-09-14T05:42:32.071Z,12.04
2017-09-14T05:43:32.043Z,12.18
2017-09-14T05:44:32.017Z,12.31
2017-09-14T05:45:31.998Z,12.41
2017-09-14T05:46:31.975Z,12.41
2017-09-14T05:47:31.954Z,12.54
2017-09-14T05:48:31.935Z,12.49
2017-09-14T05:49:31.907Z,12.66
2017-09-14T05:50:31.890Z,12.62
2017-09-14T05:51:31.867Z,12.71
2017-09-14T05:52:31.843Z,12.76
2017-09-14T05:53:31.820Z,12.69
2017-09-14T05:54:31.795Z,12.69
2017-09-14T05:55:31.773Z,12.66
2017-09-14T05:56:31.749Z,12.67
2017-09-14T05:57:31.775Z,12.66
2017-09-14T05:58:31.712Z,12.54
2017-09-14T05:59:31.684Z,12.51
2017-09-14T06:00:31.665Z,12.58
2017-09-14T06:01:31.636Z,12.51
2017-09-14T06:02:31.632Z,12.52
2017-09-14T06:03:31.602Z,12.51
2017-09-14T06:04:31.570Z,12.54
2017-09-14T06:05:31.585Z,12.43
2017-09-14T06:06:31.532Z,12.46
2017-09-14T06:07:31.506Z,12.41
2017-09-14T06:08:31.490Z,12.33
2017-09-14T06:09:31.463Z,12.4
2017-09-14T06:10:31.441Z,12.44
2017-09-14T06:11:31.419Z,12.3
2017-09-14T06:12:31.397Z,12.41
2017-09-14T06:13:31.427Z,12.37
2017-09-14T06:14:31.351Z,12.29
2017-09-14T06:15:31.320Z,12.37
2017-09-14T06:16:31.362Z,12.29
2017-09-14T06:17:31.286Z,12.33
2017-09-14T06:18:30.956Z,12.33
2017-09-14T06:19:31.241Z,12.34
2017-09-14T06:20:31.216Z,12.3
2017-09-14T06:21:31.194Z,12.36
2017-09-14T06:22:31.183Z,12.38
2017-09-14T06:23:31.152Z,12.4
2017-09-14T06:24:31.124Z,12.33
2017-09-14T06:25:31.113Z,12.4
2017-09-14T06:26:31.086Z,12.38
2017-09-14T06:27:31.067Z,12.38
2017-09-14T06:28:31.050Z,12.34
2017-09-14T06:29:31.028Z,12.43
2017-09-14T06:30:30.995Z,12.44
2017-09-14T06:31:31.024Z,12.52
2017-09-14T06:32:30.955Z,12.58
2017-09-14T06:33:30.948Z,12.66
2017-09-14T06:34:30.903Z,12.7
2017-09-14T06:35:30.878Z,12.73
2017-09-14T06:36:30.551Z,12.89
2017-09-14T06:37:30.530Z,12.96
2017-09-14T06:38:30.815Z,12.96
2017-09-14T06:39:30.802Z,12.98
2017-09-14T06:40:30.831Z,12.91
2017-09-14T06:41:30.756Z,12.88
2017-09-14T06:42:30.726Z,12.88
2017-09-14T06:43:30.710Z,12.85
2017-09-14T06:44:30.706Z,12.88
2017-09-14T06:45:30.664Z,12.88
2017-09-14T06:46:30.649Z,12.91
2017-09-14T06:47:30.616Z,12.91
2017-09-14T06:48:30.609Z,12.89
2017-09-14T06:49:30.572Z,12.96
2017-09-14T06:50:30.553Z,13.06
2017-09-14T06:51:30.528Z,13.04
2017-09-14T06:52:30.513Z,13.03
2017-09-14T06:53:30.487Z,13.07
2017-09-14T06:54:30.464Z,13.04
2017-09-14T06:55:30.435Z,13.04
2017-09-14T06:56:30.115Z,13.03
2017-09-14T06:57:30.394Z,13.04
2017-09-14T06:58:30.428Z,13.03
2017-09-14T06:59:30.048Z,13.06
2017-09-14T07:00:30.339Z,13.06
2017-09-14T07:01:30.325Z,13.06
2017-09-14T07:02:30.285Z,13.04
2017-09-14T07:03:30.269Z,13.06
2017-09-14T07:04:30.250Z,13.04
2017-09-14T07:05:30.221Z,13.03
2017-09-14T07:06:30.203Z,13.14
2017-09-14T07:07:30.172Z,13.04
2017-09-14T07:08:30.159Z,13.07
2017-09-14T07:09:30.130Z,13.09
2017-09-14T07:10:30.109Z,13.06
2017-09-14T07:11:30.136Z,13.06
2017-09-14T07:12:30.077Z,13.07
2017-09-14T07:13:30.045Z,13.16
2017-09-14T07:14:30.051Z,13.1
2017-09-14T07:15:30.005Z,13.19
2017-09-14T07:16:29.985Z,13.25
2017-09-14T07:17:29.966Z,13.1
2017-09-14T07:18:29.929Z,13.13
2017-09-14T07:19:29.910Z,13.04
2017-09-14T07:20:29.895Z,13.1
2017-09-14T07:21:29.868Z,13.03
2017-09-14T07:22:29.845Z,13.12
2017-09-14T07:23:29.515Z,13.09
2017-09-14T07:24:29.803Z,12.98
2017-09-14T07:25:29.791Z,13.09
2017-09-14T07:26:29.818Z,13.16
2017-09-14T07:27:29.740Z,13.06
2017-09-14T07:28:29.405Z,13.04
2017-09-14T07:29:29.698Z,13.03
2017-09-14T07:30:29.672Z,12.99
2017-09-14T07:31:29.654Z,13.03
2017-09-14T07:32:29.724Z,13.01
2017-09-14T07:33:29.598Z,12.87
2017-09-14T07:34:29.582Z,12.95
2017-09-14T07:35:29.565Z,12.95
2017-09-14T07:36:29.547Z,12.89
2017-09-14T07:37:29.522Z,12.8
2017-09-14T07:38:29.497Z,12.81
2017-09-14T07:39:29.467Z,12.74
2017-09-14T07:40:28.848Z,12.7
2017-09-14T07:41:29.123Z,12.69
2017-09-14T07:42:29.414Z,12.69
2017-09-14T07:43:29.387Z,12.55
2017-09-14T07:44:29.364Z,12.52
2017-09-14T07:45:29.334Z,12.44
2017-09-14T07:46:29.315Z,12.34
2017-09-14T07:47:29.307Z,12.18
2017-09-14T07:48:29.280Z,12.16
2017-09-14T07:49:29.260Z,12.11
2017-09-14T07:50:29.232Z,12.16
2017-09-14T07:51:29.201Z,12.03
2017-09-14T07:52:29.198Z,12
2017-09-14T07:53:29.157Z,11.85
2017-09-14T07:54:28.825Z,11.77
2017-09-14T07:55:29.109Z,11.72
2017-09-14T07:56:29.091Z,11.72
2017-09-14T07:57:29.073Z,11.57
2017-09-14T07:58:29.045Z,11.54
2017-09-14T07:59:29.019Z,11.53
2017-09-14T08:00:28.998Z,11.51
2017-09-14T08:01:28.968Z,11.42
2017-09-14T08:02:28.953Z,11.48
2017-09-14T08:03:28.926Z,11.39
2017-09-14T08:04:28.904Z,11.45
2017-09-14T08:05:28.624Z,11.42
2017-09-14T08:06:28.861Z,11.36
2017-09-14T08:07:28.837Z,11.44
2017-09-14T08:08:28.813Z,11.42
2017-09-14T08:09:28.840Z,11.39
2017-09-14T08:10:28.783Z,11.46
2017-09-14T08:11:28.752Z,11.44
2017-09-14T08:12:28.723Z,11.41
2017-09-14T08:13:28.405Z,11.49
2017-09-14T08:14:28.691Z,11.42
2017-09-14T08:15:28.364Z,11.46
2017-09-14T08:16:28.636Z,11.51
2017-09-14T08:17:28.619Z,11.48
2017-09-14T08:18:28.592Z,11.62
2017-09-14T08:19:28.567Z,11.59
2017-09-14T08:20:28.553Z,11.72
2017-09-14T08:21:28.520Z,11.69
2017-09-14T08:22:28.199Z,11.7
2017-09-14T08:23:28.478Z,11.72
2017-09-14T08:24:28.455Z,11.72
2017-09-14T08:25:28.428Z,11.72
2017-09-14T08:26:28.420Z,11.75
2017-09-14T08:27:28.385Z,11.74
2017-09-14T08:28:28.361Z,11.69
2017-09-14T08:29:28.052Z,11.75
2017-09-14T08:30:28.009Z,11.84
2017-09-14T08:31:28.298Z,11.72
2017-09-14T08:32:27.969Z,11.75
2017-09-14T08:33:28.256Z,11.87
2017-09-14T08:34:28.240Z,11.84
2017-09-14T08:35:28.210Z,11.88
2017-09-14T08:36:28.181Z,11.81
2017-09-14T08:37:28.159Z,11.82
2017-09-14T08:38:28.140Z,11.93
2017-09-14T08:39:28.111Z,11.98
2017-09-14T08:40:28.089Z,11.96
2017-09-14T08:41:28.083Z,11.97
2017-09-14T08:42:28.047Z,11.97
2017-09-14T08:43:28.026Z,11.94
2017-09-14T08:44:28.008Z,11.93
2017-09-14T08:45:27.676Z,11.87
2017-09-14T08:46:27.968Z,11.96
2017-09-14T08:47:27.935Z,11.81
2017-09-14T08:48:27.915Z,11.82
2017-09-14T08:49:27.897Z,11.81
2017-09-14T08:50:27.881Z,11.84
2017-09-14T08:51:27.840Z,11.84
2017-09-14T08:52:27.522Z,11.88
2017-09-14T08:53:27.802Z,11.82
2017-09-14T08:54:27.776Z,11.74
2017-09-14T08:55:27.761Z,11.69
2017-09-14T08:56:27.737Z,11.72
2017-09-14T08:57:27.413Z,11.75
2017-09-14T08:58:27.682Z,11.75
2017-09-14T08:59:27.362Z,11.78
2017-09-14T09:00:27.651Z,11.74
2017-09-14T09:01:27.308Z,11.75
2017-09-14T09:02:27.605Z,11.67
2017-09-14T09:03:27.269Z,11.66
2017-09-14T09:04:27.549Z,11.72
2017-09-14T09:05:27.533Z,11.77
2017-09-14T09:06:27.508Z,11.74
2017-09-14T09:07:27.526Z,11.81
2017-09-14T09:08:27.463Z,11.81
2017-09-14T09:09:27.455Z,11.7
2017-09-14T09:10:27.431Z,11.74
2017-09-14T09:11:27.396Z,11.72
2017-09-14T09:12:27.379Z,11.74
2017-09-14T09:13:27.376Z,11.78
2017-09-14T09:14:27.339Z,11.77
2017-09-14T09:15:26.693Z,11.75
2017-09-14T09:16:27.289Z,11.74
2017-09-14T09:17:27.266Z,11.57
2017-09-14T09:18:26.939Z,11.67
2017-09-14T09:19:27.217Z,11.62
2017-09-14T09:20:27.197Z,11.54
2017-09-14T09:21:27.165Z,11.49
2017-09-14T09:22:26.847Z,11.56
2017-09-14T09:23:27.120Z,11.53
2017-09-14T09:24:27.108Z,11.45
2017-09-14T09:25:27.099Z,11.44
2017-09-14T09:26:27.050Z,11.46
2017-09-14T09:27:27.043Z,11.42
2017-09-14T09:28:27.017Z,11.41
2017-09-14T09:29:26.990Z,11.44
2017-09-14T09:30:26.969Z,11.39
2017-09-14T09:31:26.337Z,11.38
2017-09-14T09:32:26.922Z,11.42
2017-09-14T09:33:26.915Z,11.51
2017-09-14T09:34:26.878Z,11.48
2017-09-14T09:35:26.850Z,11.48
2017-09-14T09:36:26.863Z,11.53
2017-09-14T09:37:26.808Z,11.6
2017-09-14T09:38:26.783Z,11.74
2017-09-14T09:39:26.768Z,11.7
2017-09-14T09:40:26.745Z,11.66
2017-09-14T09:41:26.717Z,11.87
2017-09-14T09:42:26.697Z,11.78
2017-09-14T09:43:26.673Z,11.84
2017-09-14T09:44:26.647Z,11.94
2017-09-14T09:45:26.626Z,12.05
2017-09-14T09:46:26.607Z,12.01
2017-09-14T09:47:26.588Z,11.84
2017-09-14T09:48:26.553Z,11.88
2017-09-14T09:49:27.610Z,12
2017-09-14T09:50:27.586Z,12.13
2017-09-14T09:51:27.047Z,12.46
2017-09-14T09:52:27.382Z,12.89
2017-09-14T09:53:27.290Z,13.35
2017-09-14T09:54:27.393Z,13.69
2017-09-14T09:55:27.171Z,13.79
2017-09-14T09:56:27.118Z,13.91
2017-09-14T09:57:27.311Z,13.9
2017-09-14T09:58:27.077Z,13.96
2017-09-14T09:59:27.252Z,14.23
2017-09-14T10:00:27.341Z,14.57
2017-09-14T10:01:27.057Z,14.61
2017-09-14T10:02:26.165Z,14.67
2017-09-14T10:03:26.750Z,14.83
2017-09-14T10:04:26.215Z,14.82
2017-09-14T10:05:26.192Z,14.83
2017-09-14T10:06:26.175Z,14.8
2017-09-14T10:07:26.156Z,14.85
2017-09-14T10:08:26.127Z,14.83
2017-09-14T10:09:26.101Z,14.83
2017-09-14T10:10:26.091Z,14.87
2017-09-14T10:11:26.080Z,14.79
2017-09-14T10:12:25.743Z,14.82
2017-09-14T10:13:26.050Z,14.79
2017-09-14T10:14:26.006Z,14.66
2017-09-14T10:15:25.683Z,14.66
2017-09-14T10:16:25.969Z,14.67
2017-09-14T10:17:25.948Z,14.61
2017-09-14T10:18:25.631Z,14.54
2017-09-14T10:19:25.911Z,14.53
2017-09-14T10:20:25.879Z,14.45
2017-09-14T10:21:25.552Z,14.41
2017-09-14T10:22:25.845Z,14.42
2017-09-14T10:23:25.826Z,14.39
2017-09-14T10:24:25.815Z,14.3
2017-09-14T10:25:25.773Z,14.3
2017-09-14T10:26:25.150Z,14.27
2017-09-14T10:27:25.737Z,14.26
2017-09-14T10:28:25.716Z,14.19
2017-09-14T10:29:25.693Z,14.19
2017-09-14T10:30:25.676Z,14.2
2017-09-14T10:31:25.344Z,14.16
2017-09-14T10:32:25.329Z,14.19
2017-09-14T10:33:25.006Z,14.19
2017-09-14T10:34:25.594Z,14.23
2017-09-14T10:35:25.571Z,14.26
2017-09-14T10:36:25.546Z,14.36
2017-09-14T10:37:25.534Z,14.34
2017-09-14T10:38:25.502Z,14.34
2017-09-14T10:39:25.173Z,14.45
2017-09-14T10:40:25.460Z,14.52
2017-09-14T10:41:25.434Z,14.63
2017-09-14T10:42:25.419Z,14.72
2017-09-14T10:43:25.396Z,14.8
2017-09-14T10:44:25.083Z,14.71
2017-09-14T10:45:25.349Z,14.83
2017-09-14T10:46:25.032Z,14.59
2017-09-14T10:47:25.308Z,14.53
2017-09-14T10:48:25.284Z,14.57
2017-09-14T10:49:25.272Z,14.49
2017-09-14T10:50:25.246Z,14.59
2017-09-14T10:51:25.238Z,14.56
2017-09-14T10:52:25.207Z,14.57
2017-09-14T10:53:25.188Z,14.56
2017-09-14T10:54:24.872Z,14.6
2017-09-14T10:55:25.138Z,14.61
2017-09-14T10:56:24.873Z,14.64
2017-09-14T10:57:24.535Z,14.6
2017-09-14T10:58:25.082Z,14.6
2017-09-14T10:59:25.055Z,14.69
2017-09-14T11:00:25.101Z,14.78
2017-09-14T11:01:24.705Z,14.69
2017-09-14T11:02:24.992Z,14.79
2017-09-14T11:03:24.970Z,14.64
2017-09-14T11:04:24.644Z,14.82
2017-09-14T11:05:24.617Z,14.83
2017-09-14T11:06:24.596Z,14.9
2017-09-14T11:07:24.887Z,15
2017-09-14T11:08:24.867Z,15.11
2017-09-14T11:09:24.526Z,15.22
2017-09-14T11:10:24.527Z,15.25
2017-09-14T11:11:24.789Z,15.34
2017-09-14T11:12:24.474Z,15.33
2017-09-14T11:13:24.752Z,15.33
2017-09-14T11:14:24.737Z,15.49
2017-09-14T11:15:24.404Z,15.49
2017-09-14T11:16:24.078Z,15.52
2017-09-14T11:17:24.671Z,15.55
2017-09-14T11:18:24.345Z,15.55
2017-09-14T11:19:24.327Z,15.48
2017-09-14T11:20:24.304Z,15.52
2017-09-14T11:21:24.589Z,15.68
2017-09-14T11:22:23.958Z,15.73
2017-09-14T11:23:24.539Z,15.6
2017-09-14T11:24:24.216Z,15.55
2017-09-14T11:25:24.509Z,15.55
2017-09-14T11:26:23.878Z,15.48
2017-09-14T11:27:23.868Z,15.51
2017-09-14T11:28:24.134Z,15.67
2017-09-14T11:29:23.804Z,15.7
2017-09-14T11:30:24.095Z,15.74
2017-09-14T11:31:24.068Z,15.76
2017-09-14T11:32:23.743Z,15.67
2017-09-14T11:33:24.029Z,15.66
2017-09-14T11:34:24.319Z,15.49
2017-09-14T11:35:24.016Z,15.55
2017-09-14T11:36:23.970Z,15.49
2017-09-14T11:37:24.262Z,15.56
2017-09-14T11:38:23.914Z,15.56
2017-09-14T11:39:23.893Z,15.53
2017-09-14T11:40:24.192Z,15.53
2017-09-14T11:41:24.163Z,15.43
2017-09-14T11:42:24.142Z,15.33
2017-09-14T11:43:24.119Z,15.46
2017-09-14T11:44:24.099Z,15.52
2017-09-14T11:45:23.770Z,15.48
2017-09-14T11:46:23.754Z,15.49
2017-09-14T11:47:24.036Z,15.52
2017-09-14T11:48:24.018Z,15.64
2017-09-14T11:49:24.008Z,15.6
2017-09-14T11:50:23.974Z,15.59
2017-09-14T11:51:23.953Z,15.64
2017-09-14T11:52:23.325Z,15.77
2017-09-14T11:53:23.917Z,15.78
2017-09-14T11:54:23.897Z,15.85
2017-09-14T11:55:23.876Z,15.85
2017-09-14T11:56:23.870Z,15.85
2017-09-14T11:57:23.826Z,15.98
2017-09-14T11:58:23.825Z,15.85
2017-09-14T11:59:23.479Z,15.88
2017-09-14T12:00:23.456Z,15.89
2017-09-14T12:01:23.740Z,15.81
2017-09-14T12:02:23.726Z,15.77
2017-09-14T12:03:23.701Z,15.67
2017-09-14T12:04:23.692Z,15.46
2017-09-14T12:05:23.664Z,15.52
2017-09-14T12:06:23.641Z,15.49
2017-09-14T12:07:23.628Z,15.4
2017-09-14T12:08:23.599Z,15.41
2017-09-14T12:09:23.571Z,15.4
2017-09-14T12:10:23.574Z,15.46
2017-09-14T12:11:23.573Z,15.41
2017-09-14T12:12:23.526Z,15.48
2017-09-14T12:13:23.491Z,15.53
2017-09-14T12:14:23.468Z,15.53
2017-09-14T12:15:23.448Z,15.51
2017-09-14T12:16:23.433Z,15.62
2017-09-14T12:17:23.410Z,15.74
2017-09-14T12:18:23.396Z,15.77
2017-09-14T12:19:23.369Z,15.77
2017-09-14T12:20:23.344Z,15.8
2017-09-14T12:21:23.331Z,15.85
2017-09-14T12:22:23.308Z,15.95
2017-09-14T12:23:23.332Z,15.98
2017-09-14T12:24:23.261Z,15.98
2017-09-14T12:25:23.293Z,15.98
2017-09-14T12:26:23.218Z,16.14
2017-09-14T12:27:23.197Z,16.07
2017-09-14T12:28:23.188Z,16.06
2017-09-14T12:29:22.854Z,16.07
2017-09-14T12:30:23.149Z,16.04
2017-09-14T12:31:23.120Z,16.07
2017-09-14T12:32:23.097Z,16.07
2017-09-14T12:33:23.096Z,16.22
2017-09-14T12:34:23.054Z,16.18
2017-09-14T12:35:22.725Z,16.23
2017-09-14T12:36:23.020Z,16.25
2017-09-14T12:37:23.005Z,16.23
2017-09-14T12:38:22.978Z,16.23
2017-09-14T12:39:22.959Z,16.18
2017-09-14T12:40:22.937Z,16.25
2017-09-14T12:41:22.916Z,16.26
2017-09-14T12:42:22.902Z,16.22
2017-09-14T12:43:22.872Z,16.18
2017-09-14T12:44:22.869Z,16.34
2017-09-14T12:45:22.835Z,16.33
2017-09-14T12:46:22.826Z,16.34
2017-09-14T12:47:22.786Z,16.33
2017-09-14T12:48:22.781Z,16.27
2017-09-14T12:49:22.816Z,16.16
2017-09-14T12:50:22.728Z,16.14
2017-09-14T12:51:22.718Z,16.14
2017-09-14T12:52:22.691Z,16.1
2017-09-14T12:53:22.691Z,16.1
2017-09-14T12:54:22.653Z,16.06